Flight Track Log - Related Links

Times and Time Zones

All times are in EDT time to prevent confusion due to time zone crossing. See the SWA499 flight status page for this flight to view local times or setup timezone preferences in your user account.

Time Position Orientation Groundspeed Altitude Reporting Facility
EDT Latitude Longitude Course Direction KTS MPH feet Rate Location/Type
Tue 02:40:14 PM 39.2811 -94.7278 167° South 147 169 2,500  Level Kansas City Center
Tue 02:41:16 PM 39.2225 -94.7142 170° South 202 232 5,000 2,613 Climbing Kansas City Center
Tue 02:42:18 PM 39.2203 -94.6308 92° East 277 319 7,900 3,000 Climbing Kansas City Center
Tue 02:43:20 PM 39.2681 -94.5203 61° Northeast 317 365 11,200 3,145 Climbing Kansas City Center
Tue 02:44:22 PM 39.3144 -94.4081 62° Northeast 368 423 14,400 3,581 Climbing Kansas City Center
Tue 02:45:24 PM 39.3464 -94.2594 74° East 388 447 18,600 3,290 Climbing Kansas City Center
Tue 02:46:26 PM 39.3644 -94.1253 80° East 398 458 21,200 2,613 Climbing Kansas City Center
Tue 02:47:28 PM 39.3861 -93.9581 80° East 420 483 24,000 2,613 Climbing Kansas City Center
Tue 02:48:30 PM 39.4042 -93.8097 81° East 430 495 26,600 2,323 Climbing Kansas City Center
Tue 02:49:32 PM 39.4261 -93.6425 80° East 439 505 28,800 1,935 Climbing Kansas City Center
Tue 02:50:34 PM 39.4456 -93.4822 81° East 452 520 30,600 1,839 Climbing Kansas City Center
Tue 02:51:36 PM 39.4650 -93.3203 81° East 458 527 32,600 1,968 Climbing Kansas City Center
Tue 02:52:39 PM 39.4839 -93.1594 81° East 458 527 34,700 1,790 Climbing Kansas City Center
Tue 02:53:40 PM 39.5025 -92.9992 81° East 457 526 36,300 1,707 Climbing Kansas City Center
Tue 02:54:42 PM 39.5242 -92.8111 81° East 450 518 38,200 1,306 Climbing Kansas City Center
Tue 02:55:44 PM 39.5419 -92.6519 82° East 449 517 39,000 387 Climbing Kansas City Center
Tue 02:56:46 PM 39.5597 -92.4967 82° East 447 514 39,000  Level Kansas City Center
Tue 02:57:48 PM 39.5753 -92.3411 83° East 445 512 39,000  Level Kansas City Center
Tue 02:58:50 PM 39.5900 -92.1497 84° East 448 516 39,000  Level Kansas City Center
Tue 02:59:54 PM 39.5994 -91.9856 86° East 457 526 39,000 238 Level Kansas City Center
Tue 03:00:56 PM 39.6108 -91.8206 85° East 463 533 39,500 968 Climbing Kansas City Center
Tue 03:01:58 PM 39.6206 -91.6611 85° East 456 525 41,000 720 Climbing Kansas City Center
Tue 03:03:01 PM 39.6303 -91.4758 86° East 440 506 41,000  Level Kansas City Center
Tue 03:04:03 PM 39.6394 -91.3217 86° East 436 502 41,000  Level Kansas City Center
Tue 03:05:05 PM 39.6483 -91.1631 86° East 438 504 41,000  Level Kansas City Center
Tue 03:06:07 PM 39.6572 -91.0058 86° East 438 504 41,000  Level Kansas City Center
Tue 03:07:09 PM 39.6658 -90.8494 86° East 436 502 41,000  Level Kansas City Center
Tue 03:08:11 PM 39.6728 -90.6911 87° East 437 503 41,000  Level Kansas City Center
Tue 03:09:13 PM 39.6839 -90.5028 86° East 436 502 41,000  Level Kansas City Center
Tue 03:10:15 PM 39.6914 -90.3433 86° East 439 505 41,000  Level Kansas City Center
Tue 03:11:17 PM 39.6989 -90.1839 86° East 441 507 41,000  Level Kansas City Center
Tue 03:12:19 PM 39.7056 -90.0244 87° East 442 509 41,000  Level Kansas City Center
Tue 03:13:21 PM 39.7125 -89.8633 87° East 444 511 41,000  Level Kansas City Center
Tue 03:14:23 PM 39.7200 -89.6883 87° East 444 511 41,000  Level Kansas City Center
Tue 03:15:25 PM 39.7264 -89.5281 87° East 445 512 41,000  Level Kansas City Center
Tue 03:16:27 PM 39.7333 -89.3697 87° East 444 511 41,000  Level Kansas City Center
Tue 03:17:29 PM 39.7394 -89.2106 87° East 443 510 41,000  Level Kansas City Center
Tue 03:18:31 PM 39.7469 -89.0189 87° East 444 511 41,000  Level Kansas City Center
Tue 03:19:33 PM 39.7525 -88.8611 87° East 442 509 41,000  Level Kansas City Center
Tue 03:20:35 PM 39.7586 -88.7033 87° East 439 505 41,000  Level Kansas City Center
Tue 03:21:37 PM 39.7628 -88.5469 88° East 436 502 41,000  Level Kansas City Center
Tue 03:22:39 PM 39.7708 -88.3889 86° East 438 504 41,000  Level Kansas City Center
Tue 03:23:41 PM 39.7778 -88.2006 87° East 441 507 41,000  Level Kansas City Center
Tue 03:24:43 PM 39.7833 -88.0450 87° East 433 498 41,000  Level Kansas City Center
Tue 03:25:04 PM 39.7867 -87.9850 86° East 435 501 41,000  Level Indianapolis Center
Tue 03:26:06 PM 39.7978 -87.8267 85° East 435 501 41,000  Level Indianapolis Center
Tue 03:27:08 PM 39.8058 -87.6664 86° East 438 504 41,000  Level Indianapolis Center
Tue 03:28:10 PM 39.8156 -87.5056 85° East 441 507 41,000  Level Indianapolis Center
Tue 03:29:12 PM 39.8258 -87.3436 85° East 446 513 41,000  Level Indianapolis Center
Tue 03:30:14 PM 39.8342 -87.1808 86° East 448 516 41,000  Level Indianapolis Center
Tue 03:31:16 PM 39.8444 -87.0222 85° East 441 507 41,000  Level Indianapolis Center
Tue 03:32:18 PM 39.8528 -86.8611 86° East 442 509 41,000  Level Indianapolis Center
Tue 03:33:20 PM 39.8617 -86.6700 86° East 440 506 41,000  Level Indianapolis Center
Tue 03:34:22 PM 39.8708 -86.5122 86° East 437 503 41,000  Level Indianapolis Center
Tue 03:35:24 PM 39.8775 -86.3547 87° East 435 501 41,000  Level Indianapolis Center
Tue 03:36:26 PM 39.8856 -86.1953 86° East 438 504 41,000  Level Indianapolis Center
Tue 03:37:28 PM 39.8933 -86.0361 86° East 439 505 41,000  Level Indianapolis Center
Tue 03:38:30 PM 39.9019 -85.8583 86° East 441 507 41,000  Level Indianapolis Center
Tue 03:39:32 PM 39.9083 -85.6981 87° East 440 506 41,000  Level Indianapolis Center
Tue 03:40:34 PM 39.9139 -85.5353 87° East 445 512 41,000  Level Indianapolis Center
Tue 03:41:36 PM 39.9206 -85.3747 87° East 443 510 41,000  Level Indianapolis Center
Tue 03:42:38 PM 39.9275 -85.2139 87° East 440 506 41,000  Level Indianapolis Center
Tue 03:43:40 PM 39.9353 -85.0503 86° East 446 513 41,000  Level Indianapolis Center
Tue 03:44:42 PM 39.9394 -84.8883 88° East 444 511 41,000  Level Indianapolis Center
Tue 03:45:44 PM 39.9469 -84.6969 87° East 450 518 41,000  Level Indianapolis Center
Tue 03:46:46 PM 39.9531 -84.5331 87° East 451 519 41,000  Level Indianapolis Center
Tue 03:47:48 PM 39.9581 -84.3692 88° East 450 518 41,000  Level Indianapolis Center
Tue 03:48:50 PM 39.9633 -84.2017 88° East 458 527 41,000  Level Indianapolis Center
Tue 03:49:52 PM 39.9681 -84.0336 88° East 459 528 41,000  Level Indianapolis Center
Tue 03:50:54 PM 39.9733 -83.8661 88° East 459 528 41,000  Level Indianapolis Center
Tue 03:51:56 PM 39.9769 -83.6986 88° East 457 526 41,000  Level Indianapolis Center
Tue 03:52:58 PM 39.9772 -83.5294 90° East 455 524 41,000  Level Indianapolis Center
Tue 03:54:00 PM 39.9742 -83.3589 91° East 457 526 41,000  Level Indianapolis Center
Tue 03:55:02 PM 39.9706 -83.1900 92° East 457 526 41,000  Level Indianapolis Center
Tue 03:56:05 PM 39.9661 -82.9953 92° East 455 524 41,000  Level Indianapolis Center
Tue 03:57:07 PM 39.9622 -82.8300 92° East 453 521 41,000  Level Indianapolis Center
Tue 03:58:09 PM 39.9583 -82.6639 92° East 455 524 41,000  Level Indianapolis Center
Tue 03:59:11 PM 39.9533 -82.4983 92° East 453 521 41,000  Level Indianapolis Center
Tue 04:00:13 PM 39.9489 -82.3325 92° East 454 522 41,000  Level Indianapolis Center
Tue 04:01:15 PM 39.9450 -82.1658 92° East 456 525 41,000  Level Indianapolis Center
Tue 04:02:17 PM 39.9397 -82.0006 92° East 455 524 41,000  Level Indianapolis Center
Tue 04:03:19 PM 39.9336 -81.8339 93° East 456 525 41,000  Level Indianapolis Center
Tue 04:04:21 PM 39.9269 -81.6383 92° East 457 526 41,000  Level Indianapolis Center
Tue 04:05:23 PM 39.9222 -81.4717 92° East 459 528 41,000 -387 Level Indianapolis Center
Tue 04:06:25 PM 39.9144 -81.2922 93° East 462 532 40,200 -823 Descending Indianapolis Center
Tue 04:07:27 PM 39.9081 -81.1272 93° East 457 526 39,300 -919 Descending Indianapolis Center
Tue 04:08:29 PM 39.9014 -80.9625 93° East 456 525 38,300 -678 Descending Indianapolis Center
Tue 04:09:22 PM 39.8981 -80.8211 92° East 452 520 38,000 -159 Descending Cleveland Center
Tue 04:10:22 PM 39.8919 -80.6642 93° East 437 503 38,000 -50 Level Cleveland Center
Tue 04:11:22 PM 39.8836 -80.5128 94° East 431 496 37,900 -850 Descending Cleveland Center
Tue 04:12:22 PM 39.8772 -80.3586 93° East 426 490 36,300 -950 Descending Cleveland Center
Tue 04:13:22 PM 39.8706 -80.2069 93° East 421 484 36,000 -150 Descending Cleveland Center
Tue 04:14:22 PM 39.8636 -80.0556 93° East 421 484 36,000  Level Cleveland Center
Tue 04:15:22 PM 39.8381 -79.9072 103° East 421 484 36,000 -1,118 Level Cleveland Center
Tue 04:17:03 PM 39.7864 -79.6744 106° East 440 506 33,000 -1,875 Descending Washington Center
Tue 04:18:02 PM 39.7556 -79.5322 106° East 430 495 31,000 -1,950 Descending Washington Center
Tue 04:19:03 PM 39.7267 -79.3903 105° East 417 480 29,100 -1,918 Descending Washington Center
Tue 04:20:04 PM 39.6978 -79.2539 105° East 407 468 27,100 -1,983 Descending Washington Center
Tue 04:21:01 PM 39.6683 -79.1150 105° East 401 461 25,200 -1,068 Descending Washington Center
Tue 04:22:02 PM 39.6411 -78.9817 105° East 396 456 25,000 -198 Descending Washington Center
Tue 04:23:02 PM 39.6036 -78.8289 108° East 396 456 24,800 -1,008 Descending Washington Center
Tue 04:24:01 PM 39.5758 -78.6958 105° East 390 449 23,000 -1,815 Descending Washington Center
Tue 04:25:01 PM 39.5458 -78.5628 106° East 385 443 21,200 -1,785 Descending Washington Center
Tue 04:26:02 PM 39.5175 -78.4378 106° East 380 437 19,400 -1,600 Descending Washington Center
Tue 04:27:01 PM 39.4892 -78.3131 106° East 369 425 18,000 -1,563 Descending Washington Center
Tue 04:28:01 PM 39.4683 -78.2181 106° East 362 417 16,300 -1,500 Descending Washington Center
Tue 04:29:01 PM 39.4361 -78.0717 106° East 352 405 15,000 -650 Descending Washington Center
Tue 04:30:01 PM 39.4364 -77.9536 90° East 335 386 15,000  Level Washington Center
Tue 04:31:02 PM 39.4367 -77.8300 90° East 335 386 15,000  Level Washington Center
Tue 04:32:02 PM 39.4389 -77.7092 89° East 330 380 15,000 -605 Level Washington Center
Tue 04:33:01 PM 39.4408 -77.5908 89° East 330 380 13,800 -1,462 Descending Washington Center
Tue 04:34:01 PM 39.4428 -77.4753 89° East 323 372 12,100 -1,377 Descending Washington Center
Tue 04:35:03 PM 39.4444 -77.3653 89° East 318 366 11,000 -673 Descending Washington Center
Tue 04:35:39 PM 39.4500 -77.3000 84° East 294 338 11,000 -63 Level Potomac TRACON
Tue 04:36:39 PM 39.4667 -77.2000 78° East 292 336 10,900 -900 Descending Potomac TRACON
Tue 04:37:39 PM 39.4667 -77.1000 90° East 288 331 9,200 -1,826 Descending Potomac TRACON
Tue 04:38:34 PM 39.4667 -77.0000 90° East 276 318 7,400 -1,835 Descending Potomac TRACON
Tue 04:39:40 PM 39.4667 -76.9000 90° East 263 303 5,500 -1,524 Descending Potomac TRACON
Tue 04:40:40 PM 39.4167 -76.8667 153° Southeast 270 311 4,200 -750 Descending Potomac TRACON
Tue 04:41:40 PM 39.3500 -76.9000 201° Southwest 267 307 4,000 -105 Descending Potomac TRACON
Tue 04:42:34 PM 39.2833 -76.9500 210° Southwest 266 306 4,000 -53 Level Potomac TRACON
Tue 04:43:34 PM 39.2333 -76.9833 207° Southwest 209 241 3,900 -650 Descending Potomac TRACON
Tue 04:44:34 PM 39.2000 -76.9500 142° Southeast 160 184 2,700 -737 Descending Potomac TRACON
Tue 04:45:28 PM 39.1833 -76.9000 113° Southeast 157 181 2,500 -200 Descending Potomac TRACON
Tue 04:46:34 PM 39.1833 -76.8333 90° East 160 184 2,300 -446 Descending Potomac TRACON
Tue 04:47:29 PM 39.1833 -76.7833 90° East 154 177 1,600 -730 Descending Potomac TRACON
Tue 04:48:29 PM 39.1833 -76.7333 90° East 125 144 900 -700 Descending Potomac TRACON
Tue 04:50:00 PM 39.1667 -76.6667 90° East  Level FlightAware Approximate
Tue 04:57:00 PM 39.1754 -76.6683 90° East  Level Estimated

Login

Don't have an account? Register now (free) for customized features, flight alerts, and more!